sensor_id;sensor_type;location;lat;lon;timestamp;temperature;humidity
9209;DHT22;4639;48.862;9.188;2023-01-01T00:02:12;14.80;99.90
9209;DHT22;4639;48.862;9.188;2023-01-01T00:04:38;14.80;99.90
9209;DHT22;4639;48.862;9.188;2023-01-01T00:07:03;14.80;99.90
9209;DHT22;4639;48.862;9.188;2023-01-01T00:09:29;14.80;99.90
9209;DHT22;4639;48.862;9.188;2023-01-01T00:12:13;14.80;99.90
9209;DHT22;4639;48.862;9.188;2023-01-01T00:14:39;14.80;99.90
9209;DHT22;4639;48.862;9.188;2023-01-01T00:17:07;14.80;99.90
9209;DHT22;4639;48.862;9.188;2023-01-01T00:19:32;14.80;99.90
9209;DHT22;4639;48.862;9.188;2023-01-01T00:21:58;14.80;99.90
9209;DHT22;4639;48.862;9.188;2023-01-01T00:24:23;14.80;99.90
9209;DHT22;4639;48.862;9.188;2023-01-01T00:26:49;14.70;99.90
9209;DHT22;4639;48.862;9.188;2023-01-01T00:29:14;14.60;99.90
9209;DHT22;4639;48.862;9.188;2023-01-01T00:31:40;14.60;99.90
9209;DHT22;4639;48.862;9.188;2023-01-01T00:34:06;14.50;99.90
9209;DHT22;4639;48.862;9.188;2023-01-01T00:36:31;14.50;99.90
9209;DHT22;4639;48.862;9.188;2023-01-01T00:38:57;14.40;99.90
9209;DHT22;4639;48.862;9.188;2023-01-01T00:41:23;14.50;99.90
9209;DHT22;4639;48.862;9.188;2023-01-01T00:43:49;14.50;99.90
9209;DHT22;4639;48.862;9.188;2023-01-01T00:46:14;14.70;99.90
9209;DHT22;4639;48.862;9.188;2023-01-01T00:48:40;14.50;99.90
9209;DHT22;4639;48.862;9.188;2023-01-01T00:51:06;14.50;99.90
9209;DHT22;4639;48.862;9.188;2023-01-01T00:53:32;14.50;99.90
9209;DHT22;4639;48.862;9.188;2023-01-01T00:55:57;14.50;99.90
9209;DHT22;4639;48.862;9.188;2023-01-01T00:58:24;14.60;99.90
9209;DHT22;4639;48.862;9.188;2023-01-01T01:00:51;14.60;99.90
9209;DHT22;4639;48.862;9.188;2023-01-01T01:03:16;14.70;99.90
9209;DHT22;4639;48.862;9.188;2023-01-01T01:08:32;14.70;99.90
9209;DHT22;4639;48.862;9.188;2023-01-01T01:11:10;14.70;99.90
9209;DHT22;4639;48.862;9.188;2023-01-01T01:13:36;14.70;99.90
9209;DHT22;4639;48.862;9.188;2023-01-01T01:16:08;14.70;99.90
9209;DHT22;4639;48.862;9.188;2023-01-01T01:18:33;14.70;99.90
9209;DHT22;4639;48.862;9.188;2023-01-01T01:20:59;14.70;99.90
9209;DHT22;4639;48.862;9.188;2023-01-01T01:23:24;14.70;99.90
9209;DHT22;4639;48.862;9.188;2023-01-01T01:25:50;14.70;99.90
9209;DHT22;4639;48.862;9.188;2023-01-01T01:28:15;14.70;99.90
9209;DHT22;4639;48.862;9.188;2023-01-01T01:30:41;14.70;99.90
9209;DHT22;4639;48.862;9.188;2023-01-01T01:33:06;14.60;99.90
9209;DHT22;4639;48.862;9.188;2023-01-01T01:35:32;14.70;99.90
9209;DHT22;4639;48.862;9.188;2023-01-01T01:37:58;14.70;99.90
9209;DHT22;4639;48.862;9.188;2023-01-01T01:40:24;14.60;99.90
9209;DHT22;4639;48.862;9.188;2023-01-01T01:42:50;14.60;99.90
9209;DHT22;4639;48.862;9.188;2023-01-01T01:45:17;14.60;99.90
9209;DHT22;4639;48.862;9.188;2023-01-01T01:47:50;14.60;99.90
9209;DHT22;4639;48.862;9.188;2023-01-01T01:55:22;14.50;99.90
9209;DHT22;4639;48.862;9.188;2023-01-01T01:57:47;14.50;99.90
9209;DHT22;4639;48.862;9.188;2023-01-01T02:00:13;14.50;99.90
9209;DHT22;4639;48.862;9.188;2023-01-01T02:02:48;14.50;99.90
9209;DHT22;4639;48.862;9.188;2023-01-01T02:05:17;14.50;99.90
9209;DHT22;4639;48.862;9.188;2023-01-01T02:07:44;14.40;99.90
9209;DHT22;4639;48.862;9.188;2023-01-01T02:10:09;14.30;99.90
9209;DHT22;4639;48.862;9.188;2023-01-01T02:12:35;14.30;99.90
9209;DHT22;4639;48.862;9.188;2023-01-01T02:15:01;14.20;99.90
9209;DHT22;4639;48.862;9.188;2023-01-01T02:17:53;14.20;99.90
9209;DHT22;4639;48.862;9.188;2023-01-01T02:20:41;14.20;99.90
9209;DHT22;4639;48.862;9.188;2023-01-01T02:26:20;14.20;99.90
9209;DHT22;4639;48.862;9.188;2023-01-01T02:32:23;14.50;99.90
9209;DHT22;4639;48.862;9.188;2023-01-01T02:35:00;14.50;99.90
9209;DHT22;4639;48.862;9.188;2023-01-01T02:37:52;14.40;99.90
9209;DHT22;4639;48.862;9.188;2023-01-01T02:40:20;14.40;99.90
9209;DHT22;4639;48.862;9.188;2023-01-01T02:42:47;14.30;99.90
9209;DHT22;4639;48.862;9.188;2023-01-01T02:45:13;14.20;99.90
9209;DHT22;4639;48.862;9.188;2023-01-01T02:47:38;14.20;99.90
9209;DHT22;4639;48.862;9.188;2023-01-01T02:50:12;14.10;99.90
9209;DHT22;4639;48.862;9.188;2023-01-01T02:53:07;14.10;99.90
9209;DHT22;4639;48.862;9.188;2023-01-01T02:58:35;14.00;99.90
9209;DHT22;4639;48.862;9.188;2023-01-01T03:01:36;14.10;99.90
9209;DHT22;4639;48.862;9.188;2023-01-01T03:04:35;14.10;99.90
9209;DHT22;4639;48.862;9.188;2023-01-01T03:10:04;13.90;99.90
9209;DHT22;4639;48.862;9.188;2023-01-01T03:12:42;13.80;99.90
9209;DHT22;4639;48.862;9.188;2023-01-01T03:17:52;13.70;99.90
9209;DHT22;4639;48.862;9.188;2023-01-01T03:20:23;13.70;99.90
9209;DHT22;4639;48.862;9.188;2023-01-01T03:22:51;13.60;99.90
9209;DHT22;4639;48.862;9.188;2023-01-01T03:25:22;13.50;99.90
9209;DHT22;4639;48.862;9.188;2023-01-01T03:27:54;13.60;99.90
9209;DHT22;4639;48.862;9.188;2023-01-01T03:30:24;13.60;99.90
9209;DHT22;4639;48.862;9.188;2023-01-01T03:33:00;13.70;99.90
9209;DHT22;4639;48.862;9.188;2023-01-01T03:35:50;13.80;99.90
9209;DHT22;4639;48.862;9.188;2023-01-01T03:38:23;13.70;99.90
9209;DHT22;4639;48.862;9.188;2023-01-01T03:40:53;13.60;99.90
9209;DHT22;4639;48.862;9.188;2023-01-01T03:43:49;13.60;99.90
9209;DHT22;4639;48.862;9.188;2023-01-01T03:46:20;13.50;99.90
9209;DHT22;4639;48.862;9.188;2023-01-01T03:48:47;13.50;99.90
9209;DHT22;4639;48.862;9.188;2023-01-01T04:00:24;13.90;99.90
9209;DHT22;4639;48.862;9.188;2023-01-01T04:05:24;14.00;99.90
9209;DHT22;4639;48.862;9.188;2023-01-01T04:07:50;14.00;99.90
9209;DHT22;4639;48.862;9.188;2023-01-01T04:10:17;13.90;99.90
9209;DHT22;4639;48.862;9.188;2023-01-01T04:12:50;14.00;99.90
9209;DHT22;4639;48.862;9.188;2023-01-01T04:15:19;14.00;99.90
9209;DHT22;4639;48.862;9.188;2023-01-01T04:17:45;13.90;99.90
9209;DHT22;4639;48.862;9.188;2023-01-01T04:20:11;14.00;99.90
9209;DHT22;4639;48.862;9.188;2023-01-01T04:22:37;13.90;99.90
9209;DHT22;4639;48.862;9.188;2023-01-01T04:25:04;13.90;99.90
9209;DHT22;4639;48.862;9.188;2023-01-01T04:27:29;14.00;99.90
9209;DHT22;4639;48.862;9.188;2023-01-01T04:29:55;14.00;99.90
9209;DHT22;4639;48.862;9.188;2023-01-01T04:32:21;13.90;99.90
9209;DHT22;4639;48.862;9.188;2023-01-01T04:34:46;14.00;99.90
9209;DHT22;4639;48.862;9.188;2023-01-01T04:37:12;14.00;99.90
9209;DHT22;4639;48.862;9.188;2023-01-01T04:39:38;14.00;99.90
9209;DHT22;4639;48.862;9.188;2023-01-01T04:42:04;14.10;99.90
9209;DHT22;4639;48.862;9.188;2023-01-01T04:44:29;14.10;99.90
9209;DHT22;4639;48.862;9.188;2023-01-01T04:46:55;14.10;99.90
9209;DHT22;4639;48.862;9.188;2023-01-01T04:49:20;14.10;99.90
9209;DHT22;4639;48.862;9.188;2023-01-01T04:51:46;14.10;99.90
9209;DHT22;4639;48.862;9.188;2023-01-01T04:54:12;14.10;99.90
9209;DHT22;4639;48.862;9.188;2023-01-01T04:56:38;14.10;99.90
9209;DHT22;4639;48.862;9.188;2023-01-01T04:59:03;14.10;99.90
9209;DHT22;4639;48.862;9.188;2023-01-01T05:01:29;14.10;99.90
9209;DHT22;4639;48.862;9.188;2023-01-01T05:03:56;14.10;99.90
9209;DHT22;4639;48.862;9.188;2023-01-01T05:06:22;14.10;99.90
9209;DHT22;4639;48.862;9.188;2023-01-01T05:08:51;14.00;99.90
9209;DHT22;4639;48.862;9.188;2023-01-01T05:11:19;14.00;99.90
9209;DHT22;4639;48.862;9.188;2023-01-01T05:13:46;14.00;99.90
9209;DHT22;4639;48.862;9.188;2023-01-01T05:16:16;14.00;99.90
9209;DHT22;4639;48.862;9.188;2023-01-01T05:18:42;14.00;99.90
9209;DHT22;4639;48.862;9.188;2023-01-01T05:21:14;14.00;99.90
9209;DHT22;4639;48.862;9.188;2023-01-01T05:23:40;14.00;99.90
9209;DHT22;4639;48.862;9.188;2023-01-01T05:26:12;14.00;99.90
9209;DHT22;4639;48.862;9.188;2023-01-01T05:28:39;14.00;99.90
9209;DHT22;4639;48.862;9.188;2023-01-01T05:31:09;14.00;99.90
9209;DHT22;4639;48.862;9.188;2023-01-01T05:33:35;14.00;99.90
9209;DHT22;4639;48.862;9.188;2023-01-01T05:36:02;14.00;99.90
9209;DHT22;4639;48.862;9.188;2023-01-01T05:38:28;14.00;99.90
9209;DHT22;4639;48.862;9.188;2023-01-01T05:40:54;14.00;99.90
9209;DHT22;4639;48.862;9.188;2023-01-01T05:43:19;14.00;99.90
9209;DHT22;4639;48.862;9.188;2023-01-01T05:45:45;14.00;99.90
9209;DHT22;4639;48.862;9.188;2023-01-01T05:48:11;14.00;99.90
9209;DHT22;4639;48.862;9.188;2023-01-01T05:50:36;14.00;99.90
9209;DHT22;4639;48.862;9.188;2023-01-01T05:53:02;14.00;99.90
9209;DHT22;4639;48.862;9.188;2023-01-01T05:55:28;14.10;99.90
9209;DHT22;4639;48.862;9.188;2023-01-01T05:57:54;14.10;99.90
9209;DHT22;4639;48.862;9.188;2023-01-01T06:00:20;14.10;99.90
9209;DHT22;4639;48.862;9.188;2023-01-01T06:02:45;14.10;99.90
9209;DHT22;4639;48.862;9.188;2023-01-01T06:05:11;14.10;99.90
9209;DHT22;4639;48.862;9.188;2023-01-01T06:07:36;14.00;99.90
9209;DHT22;4639;48.862;9.188;2023-01-01T06:10:02;14.00;99.90
9209;DHT22;4639;48.862;9.188;2023-01-01T06:12:28;14.00;99.90
9209;DHT22;4639;48.862;9.188;2023-01-01T06:14:54;14.00;99.90
9209;DHT22;4639;48.862;9.188;2023-01-01T06:17:19;13.90;99.90
9209;DHT22;4639;48.862;9.188;2023-01-01T06:19:45;14.00;99.90
9209;DHT22;4639;48.862;9.188;2023-01-01T06:22:10;14.00;99.90
9209;DHT22;4639;48.862;9.188;2023-01-01T06:24:36;14.00;99.90
9209;DHT22;4639;48.862;9.188;2023-01-01T06:27:01;14.00;99.90
9209;DHT22;4639;48.862;9.188;2023-01-01T06:29:27;14.00;99.90
9209;DHT22;4639;48.862;9.188;2023-01-01T06:31:53;14.00;99.90
9209;DHT22;4639;48.862;9.188;2023-01-01T06:34:18;13.90;99.90
9209;DHT22;4639;48.862;9.188;2023-01-01T06:36:44;13.90;99.90
9209;DHT22;4639;48.862;9.188;2023-01-01T06:39:09;13.90;99.90
9209;DHT22;4639;48.862;9.188;2023-01-01T06:41:36;13.90;99.90
9209;DHT22;4639;48.862;9.188;2023-01-01T06:44:02;13.80;99.90
9209;DHT22;4639;48.862;9.188;2023-01-01T06:46:32;13.80;99.90
9209;DHT22;4639;48.862;9.188;2023-01-01T06:49:00;13.70;99.90
9209;DHT22;4639;48.862;9.188;2023-01-01T06:51:29;13.70;99.90
9209;DHT22;4639;48.862;9.188;2023-01-01T06:53:57;13.60;99.90
9209;DHT22;4639;48.862;9.188;2023-01-01T06:56:24;13.50;99.90
9209;DHT22;4639;48.862;9.188;2023-01-01T06:58:50;13.50;99.90
9209;DHT22;4639;48.862;9.188;2023-01-01T07:01:21;13.50;99.90
9209;DHT22;4639;48.862;9.188;2023-01-01T07:03:51;13.50;99.90
9209;DHT22;4639;48.862;9.188;2023-01-01T07:06:17;13.40;99.90
9209;DHT22;4639;48.862;9.188;2023-01-01T07:08:43;13.40;99.90
9209;DHT22;4639;48.862;9.188;2023-01-01T07:11:09;13.40;99.90
9209;DHT22;4639;48.862;9.188;2023-01-01T07:13:34;13.40;99.90
9209;DHT22;4639;48.862;9.188;2023-01-01T07:16:00;13.40;99.90
9209;DHT22;4639;48.862;9.188;2023-01-01T07:18:26;13.40;99.90
9209;DHT22;4639;48.862;9.188;2023-01-01T07:21:02;13.40;99.90
9209;DHT22;4639;48.862;9.188;2023-01-01T07:23:30;13.40;99.90
9209;DHT22;4639;48.862;9.188;2023-01-01T07:25:57;13.40;99.90
9209;DHT22;4639;48.862;9.188;2023-01-01T07:28:23;13.40;99.90
9209;DHT22;4639;48.862;9.188;2023-01-01T07:30:49;13.40;99.90
9209;DHT22;4639;48.862;9.188;2023-01-01T07:33:19;13.50;99.90
9209;DHT22;4639;48.862;9.188;2023-01-01T07:35:46;13.50;99.90
9209;DHT22;4639;48.862;9.188;2023-01-01T07:38:12;13.50;99.90
9209;DHT22;4639;48.862;9.188;2023-01-01T07:40:38;13.50;99.90
9209;DHT22;4639;48.862;9.188;2023-01-01T07:43:04;13.70;99.90
9209;DHT22;4639;48.862;9.188;2023-01-01T07:45:30;13.50;99.90
9209;DHT22;4639;48.862;9.188;2023-01-01T07:47:57;13.50;99.90
9209;DHT22;4639;48.862;9.188;2023-01-01T07:50:24;13.50;99.90
9209;DHT22;4639;48.862;9.188;2023-01-01T07:52:50;13.50;99.90
9209;DHT22;4639;48.862;9.188;2023-01-01T07:55:18;13.50;99.90
9209;DHT22;4639;48.862;9.188;2023-01-01T07:57:44;13.60;99.90
9209;DHT22;4639;48.862;9.188;2023-01-01T08:00:12;13.50;99.90
9209;DHT22;4639;48.862;9.188;2023-01-01T08:02:39;13.50;99.90
9209;DHT22;4639;48.862;9.188;2023-01-01T08:05:04;13.60;99.90
9209;DHT22;4639;48.862;9.188;2023-01-01T08:07:30;13.60;99.90
9209;DHT22;4639;48.862;9.188;2023-01-01T08:09:56;13.60;99.90
9209;DHT22;4639;48.862;9.188;2023-01-01T08:12:21;13.70;99.90
9209;DHT22;4639;48.862;9.188;2023-01-01T08:14:47;13.70;99.90
9209;DHT22;4639;48.862;9.188;2023-01-01T08:17:13;13.70;99.90
9209;DHT22;4639;48.862;9.188;2023-01-01T08:19:38;13.70;99.90
9209;DHT22;4639;48.862;9.188;2023-01-01T08:22:04;13.70;99.90
9209;DHT22;4639;48.862;9.188;2023-01-01T08:24:29;13.80;99.90
9209;DHT22;4639;48.862;9.188;2023-01-01T08:26:55;13.80;99.90
9209;DHT22;4639;48.862;9.188;2023-01-01T08:29:21;13.80;99.90
9209;DHT22;4639;48.862;9.188;2023-01-01T08:31:46;13.80;99.90
9209;DHT22;4639;48.862;9.188;2023-01-01T08:34:12;13.80;99.90
9209;DHT22;4639;48.862;9.188;2023-01-01T08:36:38;13.90;99.90
9209;DHT22;4639;48.862;9.188;2023-01-01T08:39:06;13.90;99.90
9209;DHT22;4639;48.862;9.188;2023-01-01T08:41:32;13.90;99.90
9209;DHT22;4639;48.862;9.188;2023-01-01T08:43:58;13.90;99.90
9209;DHT22;4639;48.862;9.188;2023-01-01T08:46:24;14.00;99.90
9209;DHT22;4639;48.862;9.188;2023-01-01T08:48:49;14.10;99.90
9209;DHT22;4639;48.862;9.188;2023-01-01T08:51:15;14.10;99.90
9209;DHT22;4639;48.862;9.188;2023-01-01T08:53:41;14.20;99.90
9209;DHT22;4639;48.862;9.188;2023-01-01T08:56:08;14.30;99.90
9209;DHT22;4639;48.862;9.188;2023-01-01T08:58:36;14.50;99.90
9209;DHT22;4639;48.862;9.188;2023-01-01T09:01:02;14.60;99.90
9209;DHT22;4639;48.862;9.188;2023-01-01T09:03:28;14.80;99.90
9209;DHT22;4639;48.862;9.188;2023-01-01T09:05:53;15.00;99.90
9209;DHT22;4639;48.862;9.188;2023-01-01T09:08:20;15.20;99.90
9209;DHT22;4639;48.862;9.188;2023-01-01T09:10:46;15.60;99.90
9209;DHT22;4639;48.862;9.188;2023-01-01T09:13:14;15.70;99.90
9209;DHT22;4639;48.862;9.188;2023-01-01T09:15:40;16.00;99.90
9209;DHT22;4639;48.862;9.188;2023-01-01T09:18:07;16.10;99.90
9209;DHT22;4639;48.862;9.188;2023-01-01T09:20:34;16.00;99.90
9209;DHT22;4639;48.862;9.188;2023-01-01T09:22:59;16.00;99.90
9209;DHT22;4639;48.862;9.188;2023-01-01T09:25:25;15.90;99.90
9209;DHT22;4639;48.862;9.188;2023-01-01T09:28:09;15.80;99.90
9209;DHT22;4639;48.862;9.188;2023-01-01T09:30:36;15.60;99.90
9209;DHT22;4639;48.862;9.188;2023-01-01T09:33:02;15.60;99.90
9209;DHT22;4639;48.862;9.188;2023-01-01T09:35:28;15.60;99.90
9209;DHT22;4639;48.862;9.188;2023-01-01T09:37:54;15.70;99.90
9209;DHT22;4639;48.862;9.188;2023-01-01T09:43:12;16.00;99.90
9209;DHT22;4639;48.862;9.188;2023-01-01T09:46:00;16.10;99.90
9209;DHT22;4639;48.862;9.188;2023-01-01T09:48:28;16.20;99.90
9209;DHT22;4639;48.862;9.188;2023-01-01T09:50:54;16.40;99.90
9209;DHT22;4639;48.862;9.188;2023-01-01T09:53:31;16.60;99.90
9209;DHT22;4639;48.862;9.188;2023-01-01T09:55:58;16.70;99.90
9209;DHT22;4639;48.862;9.188;2023-01-01T09:58:31;16.80;99.90
9209;DHT22;4639;48.862;9.188;2023-01-01T10:01:08;16.90;99.90
9209;DHT22;4639;48.862;9.188;2023-01-01T10:03:47;17.10;99.90
9209;DHT22;4639;48.862;9.188;2023-01-01T10:06:27;17.30;99.90
9209;DHT22;4639;48.862;9.188;2023-01-01T10:11:57;17.30;99.90
9209;DHT22;4639;48.862;9.188;2023-01-01T10:14:31;17.20;99.90
9209;DHT22;4639;48.862;9.188;2023-01-01T10:17:01;17.40;99.90
9209;DHT22;4639;48.862;9.188;2023-01-01T10:19:57;17.50;99.90
9209;DHT22;4639;48.862;9.188;2023-01-01T10:22:26;17.70;99.90
9209;DHT22;4639;48.862;9.188;2023-01-01T10:25:00;17.90;99.90
9209;DHT22;4639;48.862;9.188;2023-01-01T10:27:38;17.90;99.90
9209;DHT22;4639;48.862;9.188;2023-01-01T10:30:14;18.10;99.90
9209;DHT22;4639;48.862;9.188;2023-01-01T10:32:40;18.30;99.90
9209;DHT22;4639;48.862;9.188;2023-01-01T10:35:17;18.40;99.90
9209;DHT22;4639;48.862;9.188;2023-01-01T10:37:43;18.60;99.90
9209;DHT22;4639;48.862;9.188;2023-01-01T10:40:21;18.50;99.90
9209;DHT22;4639;48.862;9.188;2023-01-01T10:42:52;18.40;99.90
9209;DHT22;4639;48.862;9.188;2023-01-01T10:45:24;18.40;99.90
9209;DHT22;4639;48.862;9.188;2023-01-01T10:48:21;18.30;99.90
9209;DHT22;4639;48.862;9.188;2023-01-01T10:50:53;18.40;99.90
9209;DHT22;4639;48.862;9.188;2023-01-01T10:53:20;18.40;99.90
9209;DHT22;4639;48.862;9.188;2023-01-01T10:55:49;18.50;99.90
9209;DHT22;4639;48.862;9.188;2023-01-01T10:58:46;18.60;99.90
9209;DHT22;4639;48.862;9.188;2023-01-01T11:01:19;18.70;99.90
9209;DHT22;4639;48.862;9.188;2023-01-01T11:04:00;18.90;99.90
9209;DHT22;4639;48.862;9.188;2023-01-01T11:06:35;19.00;99.90
9209;DHT22;4639;48.862;9.188;2023-01-01T11:09:05;18.90;99.90
9209;DHT22;4639;48.862;9.188;2023-01-01T11:11:44;18.80;99.90
9209;DHT22;4639;48.862;9.188;2023-01-01T11:14:24;18.70;99.90
9209;DHT22;4639;48.862;9.188;2023-01-01T11:16:50;18.70;99.90
9209;DHT22;4639;48.862;9.188;2023-01-01T11:19:33;18.70;99.90
9209;DHT22;4639;48.862;9.188;2023-01-01T11:22:01;18.90;99.90
9209;DHT22;4639;48.862;9.188;2023-01-01T11:24:29;19.10;99.90
9209;DHT22;4639;48.862;9.188;2023-01-01T11:29:43;19.40;99.90
9209;DHT22;4639;48.862;9.188;2023-01-01T11:32:18;19.60;99.90
9209;DHT22;4639;48.862;9.188;2023-01-01T11:34:56;19.80;99.90
9209;DHT22;4639;48.862;9.188;2023-01-01T11:37:30;19.80;99.90
9209;DHT22;4639;48.862;9.188;2023-01-01T11:39:59;19.50;99.90
9209;DHT22;4639;48.862;9.188;2023-01-01T11:42:35;19.20;99.90
9209;DHT22;4639;48.862;9.188;2023-01-01T11:45:19;19.30;99.90
9209;DHT22;4639;48.862;9.188;2023-01-01T11:47:59;19.20;99.90
9209;DHT22;4639;48.862;9.188;2023-01-01T11:50:37;19.00;99.90
9209;DHT22;4639;48.862;9.188;2023-01-01T11:56:16;19.00;99.90
9209;DHT22;4639;48.862;9.188;2023-01-01T11:58:58;19.00;99.90
9209;DHT22;4639;48.862;9.188;2023-01-01T12:04:01;19.20;99.90
9209;DHT22;4639;48.862;9.188;2023-01-01T12:09:18;19.40;99.90
9209;DHT22;4639;48.862;9.188;2023-01-01T12:12:20;19.40;99.90
9209;DHT22;4639;48.862;9.188;2023-01-01T12:14:56;19.30;99.90
9209;DHT22;4639;48.862;9.188;2023-01-01T12:17:26;19.40;99.90
9209;DHT22;4639;48.862;9.188;2023-01-01T12:20:26;19.40;99.90
9209;DHT22;4639;48.862;9.188;2023-01-01T12:22:57;19.40;99.90
9209;DHT22;4639;48.862;9.188;2023-01-01T12:25:28;19.50;99.90
9209;DHT22;4639;48.862;9.188;2023-01-01T12:39:34;19.80;99.90
9209;DHT22;4639;48.862;9.188;2023-01-01T12:42:25;20.00;99.90
9209;DHT22;4639;48.862;9.188;2023-01-01T12:45:33;19.80;99.90
9209;DHT22;4639;48.862;9.188;2023-01-01T12:54:10;19.90;99.90
9209;DHT22;4639;48.862;9.188;2023-01-01T12:56:47;20.10;99.90
9209;DHT22;4639;48.862;9.188;2023-01-01T12:59:26;20.20;99.90
9209;DHT22;4639;48.862;9.188;2023-01-01T13:01:58;20.20;99.90
9209;DHT22;4639;48.862;9.188;2023-01-01T13:04:25;20.20;99.90
9209;DHT22;4639;48.862;9.188;2023-01-01T13:06:55;20.10;99.90
9209;DHT22;4639;48.862;9.188;2023-01-01T13:09:30;20.00;99.90
9209;DHT22;4639;48.862;9.188;2023-01-01T13:12:10;19.90;99.90
9209;DHT22;4639;48.862;9.188;2023-01-01T13:14:39;19.80;99.90
9209;DHT22;4639;48.862;9.188;2023-01-01T13:19:41;19.80;99.90
9209;DHT22;4639;48.862;9.188;2023-01-01T13:35:44;19.60;99.90
9209;DHT22;4639;48.862;9.188;2023-01-01T13:43:52;19.50;99.90
9209;DHT22;4639;48.862;9.188;2023-01-01T13:46:26;19.40;99.90
9209;DHT22;4639;48.862;9.188;2023-01-01T13:49:03;19.40;99.90
9209;DHT22;4639;48.862;9.188;2023-01-01T13:57:03;19.10;99.90
9209;DHT22;4639;48.862;9.188;2023-01-01T14:02:39;19.00;99.90
9209;DHT22;4639;48.862;9.188;2023-01-01T14:05:31;18.90;99.90
9209;DHT22;4639;48.862;9.188;2023-01-01T14:07:59;18.70;99.90
9209;DHT22;4639;48.862;9.188;2023-01-01T14:10:31;18.70;99.90
9209;DHT22;4639;48.862;9.188;2023-01-01T14:13:14;18.60;99.90
9209;DHT22;4639;48.862;9.188;2023-01-01T14:18:16;18.80;99.90
9209;DHT22;4639;48.862;9.188;2023-01-01T14:20:45;18.90;99.90
9209;DHT22;4639;48.862;9.188;2023-01-01T14:25:41;19.00;99.90
9209;DHT22;4639;48.862;9.188;2023-01-01T14:28:18;19.00;99.90
9209;DHT22;4639;48.862;9.188;2023-01-01T14:30:45;19.10;99.90
9209;DHT22;4639;48.862;9.188;2023-01-01T14:33:23;19.10;99.90
9209;DHT22;4639;48.862;9.188;2023-01-01T14:35:57;19.10;99.90
9209;DHT22;4639;48.862;9.188;2023-01-01T14:38:28;19.10;99.90
9209;DHT22;4639;48.862;9.188;2023-01-01T14:41:10;19.10;99.90
9209;DHT22;4639;48.862;9.188;2023-01-01T14:43:40;19.00;99.90
9209;DHT22;4639;48.862;9.188;2023-01-01T14:46:07;19.10;99.90
9209;DHT22;4639;48.862;9.188;2023-01-01T14:48:42;19.00;99.90
9209;DHT22;4639;48.862;9.188;2023-01-01T14:51:14;19.10;99.90
9209;DHT22;4639;48.862;9.188;2023-01-01T14:53:40;18.80;99.90
9209;DHT22;4639;48.862;9.188;2023-01-01T14:56:07;18.70;99.90
9209;DHT22;4639;48.862;9.188;2023-01-01T14:58:33;18.60;99.90
9209;DHT22;4639;48.862;9.188;2023-01-01T15:01:20;18.60;99.90
9209;DHT22;4639;48.862;9.188;2023-01-01T15:04:20;18.50;99.90
9209;DHT22;4639;48.862;9.188;2023-01-01T15:06:55;18.40;99.90
9209;DHT22;4639;48.862;9.188;2023-01-01T15:09:22;18.50;99.90
9209;DHT22;4639;48.862;9.188;2023-01-01T15:11:51;18.40;99.90
9209;DHT22;4639;48.862;9.188;2023-01-01T15:14:35;18.30;99.90
9209;DHT22;4639;48.862;9.188;2023-01-01T15:17:04;18.10;99.90
9209;DHT22;4639;48.862;9.188;2023-01-01T15:19:30;18.10;99.90
9209;DHT22;4639;48.862;9.188;2023-01-01T15:21:57;18.00;99.90
9209;DHT22;4639;48.862;9.188;2023-01-01T15:24:23;17.90;99.90
9209;DHT22;4639;48.862;9.188;2023-01-01T15:26:59;17.90;99.90
9209;DHT22;4639;48.862;9.188;2023-01-01T15:29:29;17.80;99.90
9209;DHT22;4639;48.862;9.188;2023-01-01T15:32:07;17.70;99.90
9209;DHT22;4639;48.862;9.188;2023-01-01T15:35:17;17.60;99.90
9209;DHT22;4639;48.862;9.188;2023-01-01T15:37:49;17.40;99.90
9209;DHT22;4639;48.862;9.188;2023-01-01T15:42:46;17.30;99.90
9209;DHT22;4639;48.862;9.188;2023-01-01T15:45:38;17.20;99.90
9209;DHT22;4639;48.862;9.188;2023-01-01T15:50:54;17.00;99.90
9209;DHT22;4639;48.862;9.188;2023-01-01T15:53:25;16.90;99.90
9209;DHT22;4639;48.862;9.188;2023-01-01T15:56:02;16.80;99.90
9209;DHT22;4639;48.862;9.188;2023-01-01T16:01:08;16.70;99.90
9209;DHT22;4639;48.862;9.188;2023-01-01T16:03:36;16.80;99.90
9209;DHT22;4639;48.862;9.188;2023-01-01T16:06:03;16.70;99.90
9209;DHT22;4639;48.862;9.188;2023-01-01T16:08:29;16.70;99.90
9209;DHT22;4639;48.862;9.188;2023-01-01T16:10:54;16.60;99.90
9209;DHT22;4639;48.862;9.188;2023-01-01T16:13:20;16.50;99.90
9209;DHT22;4639;48.862;9.188;2023-01-01T16:15:55;16.50;99.90
9209;DHT22;4639;48.862;9.188;2023-01-01T16:18:26;16.30;99.90
9209;DHT22;4639;48.862;9.188;2023-01-01T16:20:53;16.10;99.90
9209;DHT22;4639;48.862;9.188;2023-01-01T16:23:19;16.10;99.90
9209;DHT22;4639;48.862;9.188;2023-01-01T16:25:45;15.90;99.90
9209;DHT22;4639;48.862;9.188;2023-01-01T16:28:10;15.90;99.90
9209;DHT22;4639;48.862;9.188;2023-01-01T16:30:36;15.90;99.90
9209;DHT22;4639;48.862;9.188;2023-01-01T16:33:02;15.90;99.90
9209;DHT22;4639;48.862;9.188;2023-01-01T16:35:28;16.00;99.90
9209;DHT22;4639;48.862;9.188;2023-01-01T16:37:54;16.00;99.90
9209;DHT22;4639;48.862;9.188;2023-01-01T16:40:19;16.00;99.90
9209;DHT22;4639;48.862;9.188;2023-01-01T16:42:45;16.00;99.90
9209;DHT22;4639;48.862;9.188;2023-01-01T16:45:16;15.90;99.90
9209;DHT22;4639;48.862;9.188;2023-01-01T16:47:42;15.80;99.90
9209;DHT22;4639;48.862;9.188;2023-01-01T16:50:08;15.70;99.90
9209;DHT22;4639;48.862;9.188;2023-01-01T16:52:35;15.70;99.90
9209;DHT22;4639;48.862;9.188;2023-01-01T16:55:00;15.50;99.90
9209;DHT22;4639;48.862;9.188;2023-01-01T16:57:26;15.70;99.90
9209;DHT22;4639;48.862;9.188;2023-01-01T16:59:52;15.40;99.90
9209;DHT22;4639;48.862;9.188;2023-01-01T17:02:17;15.40;99.90
9209;DHT22;4639;48.862;9.188;2023-01-01T17:04:43;15.30;99.90
9209;DHT22;4639;48.862;9.188;2023-01-01T17:07:09;15.30;99.90
9209;DHT22;4639;48.862;9.188;2023-01-01T17:09:35;15.20;99.90
9209;DHT22;4639;48.862;9.188;2023-01-01T17:12:00;15.10;99.90
9209;DHT22;4639;48.862;9.188;2023-01-01T17:14:26;15.10;99.90
9209;DHT22;4639;48.862;9.188;2023-01-01T17:16:51;15.10;99.90
9209;DHT22;4639;48.862;9.188;2023-01-01T17:19:19;15.00;99.90
9209;DHT22;4639;48.862;9.188;2023-01-01T17:21:47;15.00;99.90
9209;DHT22;4639;48.862;9.188;2023-01-01T17:24:14;15.00;99.90
9209;DHT22;4639;48.862;9.188;2023-01-01T17:26:40;14.90;99.90
9209;DHT22;4639;48.862;9.188;2023-01-01T17:29:05;14.70;99.90
9209;DHT22;4639;48.862;9.188;2023-01-01T17:31:32;14.60;99.90
9209;DHT22;4639;48.862;9.188;2023-01-01T17:33:58;14.50;99.90
9209;DHT22;4639;48.862;9.188;2023-01-01T17:36:23;14.40;99.90
9209;DHT22;4639;48.862;9.188;2023-01-01T17:38:51;14.40;99.90
9209;DHT22;4639;48.862;9.188;2023-01-01T17:41:17;14.40;99.90
9209;DHT22;4639;48.862;9.188;2023-01-01T17:43:45;14.30;99.90
9209;DHT22;4639;48.862;9.188;2023-01-01T17:46:14;14.30;99.90
9209;DHT22;4639;48.862;9.188;2023-01-01T17:48:41;14.40;99.90
9209;DHT22;4639;48.862;9.188;2023-01-01T17:51:07;14.20;99.90
9209;DHT22;4639;48.862;9.188;2023-01-01T17:53:33;14.20;99.90
9209;DHT22;4639;48.862;9.188;2023-01-01T17:55:58;14.10;99.90
9209;DHT22;4639;48.862;9.188;2023-01-01T17:58:24;14.10;99.90
9209;DHT22;4639;48.862;9.188;2023-01-01T18:00:50;14.00;99.90
9209;DHT22;4639;48.862;9.188;2023-01-01T18:03:17;14.00;99.90
9209;DHT22;4639;48.862;9.188;2023-01-01T18:05:43;13.90;99.90
9209;DHT22;4639;48.862;9.188;2023-01-01T18:08:09;13.90;99.90
9209;DHT22;4639;48.862;9.188;2023-01-01T18:10:35;13.80;99.90
9209;DHT22;4639;48.862;9.188;2023-01-01T18:13:01;13.80;99.90